sensor_id;sensor_type;location;lat;lon;timestamp;temperature;humidity
19348;DHT22;9810;52.480;9.806;2023-04-19T15:39:01;16.60;99.70
19348;DHT22;9810;52.480;9.806;2023-04-19T15:41:28;17.80;76.80
19348;DHT22;9810;52.480;9.806;2023-04-19T15:43:56;17.60;67.30
19348;DHT22;9810;52.480;9.806;2023-04-19T15:46:23;17.50;67.60
19348;DHT22;9810;52.480;9.806;2023-04-19T15:48:50;17.30;67.40
19348;DHT22;9810;52.480;9.806;2023-04-19T15:51:18;17.20;66.70
19348;DHT22;9810;52.480;9.806;2023-04-19T15:53:45;17.00;65.00
19348;DHT22;9810;52.480;9.806;2023-04-19T15:56:13;16.90;64.70
19348;DHT22;9810;52.480;9.806;2023-04-19T15:58:40;16.90;64.40
19348;DHT22;9810;52.480;9.806;2023-04-19T16:01:10;16.80;64.00
19348;DHT22;9810;52.480;9.806;2023-04-19T16:03:38;16.80;63.30
19348;DHT22;9810;52.480;9.806;2023-04-19T16:06:05;16.80;63.00
19348;DHT22;9810;52.480;9.806;2023-04-19T16:08:33;16.90;62.40
19348;DHT22;9810;52.480;9.806;2023-04-19T16:11:00;17.10;63.80
19348;DHT22;9810;52.480;9.806;2023-04-19T16:13:29;17.50;78.30
19348;DHT22;9810;52.480;9.806;2023-04-19T16:15:56;17.80;80.90
19348;DHT22;9810;52.480;9.806;2023-04-19T16:18:23;18.00;82.20
19348;DHT22;9810;52.480;9.806;2023-04-19T16:20:52;18.20;82.60
19348;DHT22;9810;52.480;9.806;2023-04-19T16:23:19;18.40;81.70
19348;DHT22;9810;52.480;9.806;2023-04-19T16:25:46;18.50;82.00
19348;DHT22;9810;52.480;9.806;2023-04-19T16:28:14;18.50;82.00
19348;DHT22;9810;52.480;9.806;2023-04-19T16:30:44;18.50;83.10
19348;DHT22;9810;52.480;9.806;2023-04-19T16:33:12;18.70;83.10
19348;DHT22;9810;52.480;9.806;2023-04-19T16:35:40;18.80;83.00
19348;DHT22;9810;52.480;9.806;2023-04-19T16:38:07;18.90;81.10
19348;DHT22;9810;52.480;9.806;2023-04-19T16:40:34;18.90;83.70
19348;DHT22;9810;52.480;9.806;2023-04-19T16:43:01;19.00;84.60
19348;DHT22;9810;52.480;9.806;2023-04-19T16:45:29;19.00;85.00
19348;DHT22;9810;52.480;9.806;2023-04-19T16:47:58;19.00;85.90
19348;DHT22;9810;52.480;9.806;2023-04-19T16:50:27;19.00;86.40
19348;DHT22;9810;52.480;9.806;2023-04-19T16:52:54;18.90;81.20
19348;DHT22;9810;52.480;9.806;2023-04-19T16:55:22;19.00;84.60
19348;DHT22;9810;52.480;9.806;2023-04-19T16:57:49;19.00;86.40
19348;DHT22;9810;52.480;9.806;2023-04-19T17:00:18;19.10;87.10
19348;DHT22;9810;52.480;9.806;2023-04-19T17:02:46;19.10;87.70
19348;DHT22;9810;52.480;9.806;2023-04-19T17:05:15;19.10;88.00
19348;DHT22;9810;52.480;9.806;2023-04-19T17:07:42;19.10;88.40
19348;DHT22;9810;52.480;9.806;2023-04-19T17:10:10;19.10;88.90
19348;DHT22;9810;52.480;9.806;2023-04-19T17:12:38;19.10;89.30
19348;DHT22;9810;52.480;9.806;2023-04-19T17:15:06;19.10;89.70
19348;DHT22;9810;52.480;9.806;2023-04-19T17:17:33;19.00;89.40
19348;DHT22;9810;52.480;9.806;2023-04-19T17:20:00;18.80;90.40
19348;DHT22;9810;52.480;9.806;2023-04-19T17:22:31;18.90;90.60
19348;DHT22;9810;52.480;9.806;2023-04-19T17:24:58;18.90;90.80
19348;DHT22;9810;52.480;9.806;2023-04-19T17:27:26;18.90;90.90
19348;DHT22;9810;52.480;9.806;2023-04-19T17:29:53;19.00;91.10
19348;DHT22;9810;52.480;9.806;2023-04-19T17:32:20;19.00;91.30
19348;DHT22;9810;52.480;9.806;2023-04-19T17:34:47;19.00;91.50
19348;DHT22;9810;52.480;9.806;2023-04-19T17:37:14;19.00;91.60
19348;DHT22;9810;52.480;9.806;2023-04-19T17:39:43;19.00;91.80
19348;DHT22;9810;52.480;9.806;2023-04-19T17:42:10;18.90;90.00
19348;DHT22;9810;52.480;9.806;2023-04-19T17:44:38;18.90;89.70
19348;DHT22;9810;52.480;9.806;2023-04-19T17:47:04;18.90;91.00
19348;DHT22;9810;52.480;9.806;2023-04-19T17:49:34;18.90;92.00
19348;DHT22;9810;52.480;9.806;2023-04-19T17:52:01;19.00;92.50
19348;DHT22;9810;52.480;9.806;2023-04-19T17:54:28;19.00;92.70
19348;DHT22;9810;52.480;9.806;2023-04-19T17:56:57;19.00;93.00
19348;DHT22;9810;52.480;9.806;2023-04-19T17:59:29;19.10;93.20
19348;DHT22;9810;52.480;9.806;2023-04-19T18:01:56;19.10;93.40
19348;DHT22;9810;52.480;9.806;2023-04-19T18:04:23;19.10;93.60
19348;DHT22;9810;52.480;9.806;2023-04-19T18:06:50;19.10;93.80
19348;DHT22;9810;52.480;9.806;2023-04-19T18:09:18;19.00;91.50
19348;DHT22;9810;52.480;9.806;2023-04-19T18:11:45;18.90;89.90
19348;DHT22;9810;52.480;9.806;2023-04-19T18:14:15;18.80;92.60
19348;DHT22;9810;52.480;9.806;2023-04-19T18:16:42;18.80;93.50
19348;DHT22;9810;52.480;9.806;2023-04-19T18:19:09;18.90;94.20
19348;DHT22;9810;52.480;9.806;2023-04-19T18:21:37;18.90;94.40
19348;DHT22;9810;52.480;9.806;2023-04-19T18:24:05;18.90;94.50
19348;DHT22;9810;52.480;9.806;2023-04-19T18:26:36;19.00;94.70
19348;DHT22;9810;52.480;9.806;2023-04-19T18:29:06;19.00;95.30
19348;DHT22;9810;52.480;9.806;2023-04-19T18:31:35;19.00;95.10
19348;DHT22;9810;52.480;9.806;2023-04-19T18:34:02;19.00;95.30
19348;DHT22;9810;52.480;9.806;2023-04-19T18:36:29;19.00;95.50
19348;DHT22;9810;52.480;9.806;2023-04-19T18:38:57;19.00;95.70
19348;DHT22;9810;52.480;9.806;2023-04-19T18:41:24;19.00;95.90
19348;DHT22;9810;52.480;9.806;2023-04-19T18:43:52;19.00;96.20
19348;DHT22;9810;52.480;9.806;2023-04-19T18:46:20;19.00;96.30
19348;DHT22;9810;52.480;9.806;2023-04-19T18:48:50;19.00;96.50
19348;DHT22;9810;52.480;9.806;2023-04-19T18:51:17;19.00;96.70
19348;DHT22;9810;52.480;9.806;2023-04-19T18:53:44;18.90;96.80
19348;DHT22;9810;52.480;9.806;2023-04-19T18:56:13;18.90;97.00
19348;DHT22;9810;52.480;9.806;2023-04-19T18:58:41;18.90;97.30
19348;DHT22;9810;52.480;9.806;2023-04-19T19:01:08;18.90;97.50
19348;DHT22;9810;52.480;9.806;2023-04-19T19:03:36;18.90;97.70
19348;DHT22;9810;52.480;9.806;2023-04-19T19:06:05;18.90;97.90
19348;DHT22;9810;52.480;9.806;2023-04-19T19:08:32;18.90;98.00
19348;DHT22;9810;52.480;9.806;2023-04-19T19:11:02;18.90;98.20
19348;DHT22;9810;52.480;9.806;2023-04-19T19:13:30;18.90;98.40
19348;DHT22;9810;52.480;9.806;2023-04-19T19:15:57;18.90;98.50
19348;DHT22;9810;52.480;9.806;2023-04-19T19:18:25;18.90;98.60
19348;DHT22;9810;52.480;9.806;2023-04-19T19:20:56;19.00;98.80
19348;DHT22;9810;52.480;9.806;2023-04-19T19:23:26;18.90;98.90
19348;DHT22;9810;52.480;9.806;2023-04-19T19:25:53;19.00;99.10
19348;DHT22;9810;52.480;9.806;2023-04-19T19:28:21;19.00;99.30
19348;DHT22;9810;52.480;9.806;2023-04-19T19:30:49;19.00;99.40
19348;DHT22;9810;52.480;9.806;2023-04-19T19:33:16;19.00;99.60
19348;DHT22;9810;52.480;9.806;2023-04-19T19:35:44;19.00;99.80
19348;DHT22;9810;52.480;9.806;2023-04-19T19:38:11;19.00;99.90
19348;DHT22;9810;52.480;9.806;2023-04-19T19:40:40;19.00;99.90
19348;DHT22;9810;52.480;9.806;2023-04-19T19:43:07;19.00;99.90
19348;DHT22;9810;52.480;9.806;2023-04-19T19:45:35;19.00;99.90
19348;DHT22;9810;52.480;9.806;2023-04-19T19:48:05;19.00;99.90
19348;DHT22;9810;52.480;9.806;2023-04-19T19:50:32;19.00;99.90
19348;DHT22;9810;52.480;9.806;2023-04-19T19:53:00;19.00;99.90
19348;DHT22;9810;52.480;9.806;2023-04-19T19:55:27;19.00;99.90
19348;DHT22;9810;52.480;9.806;2023-04-19T19:57:56;19.00;99.90
19348;DHT22;9810;52.480;9.806;2023-04-19T20:00:23;19.10;99.90
19348;DHT22;9810;52.480;9.806;2023-04-19T20:02:51;19.00;99.90
19348;DHT22;9810;52.480;9.806;2023-04-19T20:05:18;19.00;99.90
19348;DHT22;9810;52.480;9.806;2023-04-19T20:07:45;19.00;99.90
19348;DHT22;9810;52.480;9.806;2023-04-19T20:10:13;18.80;98.80
19348;DHT22;9810;52.480;9.806;2023-04-19T20:12:42;18.60;99.40
19348;DHT22;9810;52.480;9.806;2023-04-19T20:15:12;18.70;99.90
19348;DHT22;9810;52.480;9.806;2023-04-19T20:17:40;18.80;99.90
19348;DHT22;9810;52.480;9.806;2023-04-19T20:20:09;18.80;99.90
19348;DHT22;9810;52.480;9.806;2023-04-19T20:22:36;18.80;99.90
19348;DHT22;9810;52.480;9.806;2023-04-19T20:25:04;18.80;99.90
19348;DHT22;9810;52.480;9.806;2023-04-19T20:27:32;18.80;99.90
19348;DHT22;9810;52.480;9.806;2023-04-19T20:29:59;18.90;99.90
19348;DHT22;9810;52.480;9.806;2023-04-19T20:32:28;18.80;99.90
19348;DHT22;9810;52.480;9.806;2023-04-19T20:34:55;18.70;99.90
19348;DHT22;9810;52.480;9.806;2023-04-19T20:37:24;18.70;99.90
19348;DHT22;9810;52.480;9.806;2023-04-19T20:39:55;18.50;99.90
19348;DHT22;9810;52.480;9.806;2023-04-19T20:42:23;18.30;99.90
19348;DHT22;9810;52.480;9.806;2023-04-19T20:44:50;18.10;99.90
19348;DHT22;9810;52.480;9.806;2023-04-19T20:47:17;18.00;99.90
19348;DHT22;9810;52.480;9.806;2023-04-19T20:49:46;18.00;99.90
19348;DHT22;9810;52.480;9.806;2023-04-19T20:52:13;17.90;99.90
19348;DHT22;9810;52.480;9.806;2023-04-19T20:54:40;17.90;99.90
19348;DHT22;9810;52.480;9.806;2023-04-19T20:57:07;17.90;99.90
19348;DHT22;9810;52.480;9.806;2023-04-19T20:59:35;17.80;99.90
19348;DHT22;9810;52.480;9.806;2023-04-19T21:02:03;17.80;99.90
19348;DHT22;9810;52.480;9.806;2023-04-19T21:04:31;17.80;99.90
19348;DHT22;9810;52.480;9.806;2023-04-19T21:07:00;17.80;99.90
19348;DHT22;9810;52.480;9.806;2023-04-19T21:09:27;17.70;99.90
19348;DHT22;9810;52.480;9.806;2023-04-19T21:11:54;17.70;99.90
19348;DHT22;9810;52.480;9.806;2023-04-19T21:14:22;17.70;99.90
19348;DHT22;9810;52.480;9.806;2023-04-19T21:16:49;17.70;99.90
19348;DHT22;9810;52.480;9.806;2023-04-19T21:19:17;17.70;99.90
19348;DHT22;9810;52.480;9.806;2023-04-19T21:21:44;17.70;99.90
19348;DHT22;9810;52.480;9.806;2023-04-19T21:24:13;17.60;99.90
19348;DHT22;9810;52.480;9.806;2023-04-19T21:26:40;17.60;99.90
19348;DHT22;9810;52.480;9.806;2023-04-19T21:29:07;17.60;99.90
19348;DHT22;9810;52.480;9.806;2023-04-19T21:31:35;17.60;99.90
19348;DHT22;9810;52.480;9.806;2023-04-19T21:34:02;17.60;99.90
19348;DHT22;9810;52.480;9.806;2023-04-19T21:36:30;17.60;99.90
19348;DHT22;9810;52.480;9.806;2023-04-19T21:38:57;17.60;99.90
19348;DHT22;9810;52.480;9.806;2023-04-19T21:41:26;17.60;99.90
19348;DHT22;9810;52.480;9.806;2023-04-19T21:43:53;17.50;99.90
19348;DHT22;9810;52.480;9.806;2023-04-19T21:46:20;17.50;99.90
19348;DHT22;9810;52.480;9.806;2023-04-19T21:48:47;17.50;99.90
19348;DHT22;9810;52.480;9.806;2023-04-19T21:51:15;17.50;99.90
19348;DHT22;9810;52.480;9.806;2023-04-19T21:53:42;17.50;99.90
19348;DHT22;9810;52.480;9.806;2023-04-19T21:56:10;17.50;99.90
19348;DHT22;9810;52.480;9.806;2023-04-19T21:58:39;17.50;99.90
19348;DHT22;9810;52.480;9.806;2023-04-19T22:01:06;17.50;99.90
19348;DHT22;9810;52.480;9.806;2023-04-19T22:03:38;17.50;99.90
19348;DHT22;9810;52.480;9.806;2023-04-19T22:06:06;17.50;99.90
19348;DHT22;9810;52.480;9.806;2023-04-19T22:08:34;17.50;99.90
19348;DHT22;9810;52.480;9.806;2023-04-19T22:11:04;17.50;99.90
19348;DHT22;9810;52.480;9.806;2023-04-19T22:13:31;17.40;99.90
19348;DHT22;9810;52.480;9.806;2023-04-19T22:16:01;17.40;99.90
19348;DHT22;9810;52.480;9.806;2023-04-19T22:18:28;17.40;99.90
19348;DHT22;9810;52.480;9.806;2023-04-19T22:20:55;17.40;99.90
19348;DHT22;9810;52.480;9.806;2023-04-19T22:23:23;17.40;99.90
19348;DHT22;9810;52.480;9.806;2023-04-19T22:25:50;17.40;99.90
19348;DHT22;9810;52.480;9.806;2023-04-19T22:28:17;17.40;99.90
19348;DHT22;9810;52.480;9.806;2023-04-19T22:30:45;17.40;99.90
19348;DHT22;9810;52.480;9.806;2023-04-19T22:33:13;17.40;99.90
19348;DHT22;9810;52.480;9.806;2023-04-19T22:35:41;17.40;99.90
19348;DHT22;9810;52.480;9.806;2023-04-19T22:38:08;17.40;99.90
19348;DHT22;9810;52.480;9.806;2023-04-19T22:40:35;17.40;99.90
19348;DHT22;9810;52.480;9.806;2023-04-19T22:43:02;17.40;99.90
19348;DHT22;9810;52.480;9.806;2023-04-19T22:45:30;17.40;99.90
19348;DHT22;9810;52.480;9.806;2023-04-19T22:47:57;17.40;99.90
19348;DHT22;9810;52.480;9.806;2023-04-19T22:50:26;17.30;99.90
19348;DHT22;9810;52.480;9.806;2023-04-19T22:52:53;17.30;99.90
19348;DHT22;9810;52.480;9.806;2023-04-19T22:55:21;17.30;99.90
19348;DHT22;9810;52.480;9.806;2023-04-19T22:57:48;17.30;99.90
19348;DHT22;9810;52.480;9.806;2023-04-19T23:00:16;17.30;99.90
19348;DHT22;9810;52.480;9.806;2023-04-19T23:02:43;17.30;99.90
19348;DHT22;9810;52.480;9.806;2023-04-19T23:05:10;17.30;99.90
19348;DHT22;9810;52.480;9.806;2023-04-19T23:07:39;17.30;99.90
19348;DHT22;9810;52.480;9.806;2023-04-19T23:10:08;17.30;99.90
19348;DHT22;9810;52.480;9.806;2023-04-19T23:12:36;17.40;99.90
19348;DHT22;9810;52.480;9.806;2023-04-19T23:15:05;17.50;99.90
19348;DHT22;9810;52.480;9.806;2023-04-19T23:17:35;17.60;99.90
19348;DHT22;9810;52.480;9.806;2023-04-19T23:20:04;17.60;99.90
19348;DHT22;9810;52.480;9.806;2023-04-19T23:22:33;17.60;99.90
19348;DHT22;9810;52.480;9.806;2023-04-19T23:25:02;17.70;99.90
19348;DHT22;9810;52.480;9.806;2023-04-19T23:27:30;17.70;99.90
19348;DHT22;9810;52.480;9.806;2023-04-19T23:29:58;17.70;99.90
19348;DHT22;9810;52.480;9.806;2023-04-19T23:32:25;17.70;99.90
19348;DHT22;9810;52.480;9.806;2023-04-19T23:34:52;17.80;99.90
19348;DHT22;9810;52.480;9.806;2023-04-19T23:37:22;17.80;99.90
19348;DHT22;9810;52.480;9.806;2023-04-19T23:39:57;17.80;99.90
19348;DHT22;9810;52.480;9.806;2023-04-19T23:42:27;17.70;99.90
19348;DHT22;9810;52.480;9.806;2023-04-19T23:44:55;17.80;99.90
19348;DHT22;9810;52.480;9.806;2023-04-19T23:47:22;17.70;99.90
19348;DHT22;9810;52.480;9.806;2023-04-19T23:49:49;17.70;99.90
19348;DHT22;9810;52.480;9.806;2023-04-19T23:52:17;17.80;99.90
19348;DHT22;9810;52.480;9.806;2023-04-19T23:54:47;17.70;99.90
19348;DHT22;9810;52.480;9.806;2023-04-19T23:57:14;17.70;99.90
19348;DHT22;9810;52.480;9.806;2023-04-19T23:59:43;17.70;99.90
